createdAt,value
2018-02-15T00:01:22.358Z,100.00
2018-02-15T00:03:50.098Z,100.00
2018-02-15T00:06:17.587Z,100.00
2018-02-15T00:08:45.052Z,100.00
2018-02-15T00:11:13.373Z,100.00
2018-02-15T00:13:40.839Z,100.00
2018-02-15T00:16:08.307Z,100.00
2018-02-15T00:18:36.369Z,100.00
2018-02-15T00:21:03.838Z,100.00
2018-02-15T00:23:31.319Z,100.00
2018-02-15T00:25:59.360Z,100.00
2018-02-15T00:28:27.137Z,100.00
2018-02-15T00:30:54.620Z,100.00
2018-02-15T00:33:22.468Z,100.00
2018-02-15T00:35:49.937Z,100.00
2018-02-15T00:38:17.422Z,100.00
2018-02-15T00:40:45.345Z,100.00
2018-02-15T00:43:12.824Z,100.00
2018-02-15T00:45:40.292Z,100.00
2018-02-15T00:48:08.034Z,100.00
2018-02-15T00:50:35.510Z,100.00
2018-02-15T00:53:02.977Z,100.00
2018-02-15T00:55:30.906Z,100.00
2018-02-15T00:57:58.377Z,100.00
2018-02-15T01:00:25.864Z,100.00
2018-02-15T01:02:54.022Z,100.00
2018-02-15T01:05:21.496Z,100.00
2018-02-15T01:07:49.128Z,100.00
2018-02-15T01:10:17.021Z,100.00
2018-02-15T01:12:44.844Z,100.00
2018-02-15T01:15:12.344Z,100.00
2018-02-15T01:17:40.333Z,100.00
2018-02-15T01:20:07.814Z,100.00
2018-02-15T01:22:35.289Z,100.00
2018-02-15T01:25:03.316Z,100.00
2018-02-15T01:27:30.784Z,100.00
2018-02-15T01:29:58.267Z,100.00
2018-02-15T01:32:25.993Z,100.00
2018-02-15T01:34:53.468Z,100.00
2018-02-15T01:37:20.948Z,100.00
2018-02-15T01:39:48.994Z,100.00
2018-02-15T01:42:16.469Z,100.00
2018-02-15T01:44:43.939Z,100.00
2018-02-15T01:47:11.991Z,100.00
2018-02-15T01:49:51.149Z,100.00
2018-02-15T01:52:18.792Z,100.00
2018-02-15T01:54:46.272Z,100.00
2018-02-15T01:57:13.751Z,100.00
2018-02-15T01:59:41.491Z,100.00
2018-02-15T02:02:08.970Z,100.00
2018-02-15T02:04:36.443Z,100.00
2018-02-15T02:07:04.559Z,100.00
2018-02-15T02:09:32.033Z,100.00
2018-02-15T02:11:59.516Z,100.00
2018-02-15T02:14:27.563Z,100.00
2018-02-15T02:16:55.068Z,100.00
2018-02-15T02:19:22.540Z,100.00
2018-02-15T02:21:50.560Z,100.00
2018-02-15T02:24:18.040Z,100.00
2018-02-15T02:26:45.517Z,100.00
2018-02-15T02:29:13.557Z,100.00
2018-02-15T02:31:41.037Z,100.00
2018-02-15T02:34:08.520Z,100.00
2018-02-15T02:36:36.237Z,100.00
2018-02-15T02:39:03.739Z,100.00
2018-02-15T02:41:31.210Z,100.00
2018-02-15T02:43:59.240Z,100.00
2018-02-15T02:46:26.701Z,100.00
2018-02-15T02:48:54.183Z,100.00
2018-02-15T02:51:21.919Z,100.00
2018-02-15T02:53:49.394Z,100.00
2018-02-15T02:56:16.868Z,100.00
2018-02-15T02:58:45.227Z,100.00
2018-02-15T03:01:12.708Z,100.00
2018-02-15T03:03:40.180Z,100.00
2018-02-15T03:06:08.206Z,100.00
2018-02-15T03:08:35.684Z,100.00
2018-02-15T03:11:03.157Z,100.00
2018-02-15T03:13:31.200Z,100.00
2018-02-15T03:16:01.517Z,100.00
2018-02-15T03:18:28.984Z,100.00
2018-02-15T03:20:56.972Z,100.00
2018-02-15T03:23:24.444Z,100.00
2018-02-15T03:25:51.930Z,100.00
2018-02-15T03:28:19.970Z,100.00
2018-02-15T03:30:47.438Z,100.00
2018-02-15T03:33:14.922Z,100.00
2018-02-15T03:35:42.653Z,100.00
2018-02-15T03:38:10.129Z,100.00
2018-02-15T03:40:37.610Z,100.00
2018-02-15T03:43:05.405Z,100.00
2018-02-15T03:45:32.876Z,100.00
2018-02-15T03:48:00.347Z,100.00
2018-02-15T03:50:28.077Z,100.00
2018-02-15T03:52:55.555Z,100.00
2018-02-15T03:55:23.020Z,100.00
2018-02-15T03:57:50.836Z,100.00
2018-02-15T04:00:18.318Z,100.00
2018-02-15T04:02:45.798Z,100.00
2018-02-15T04:05:13.528Z,100.00
2018-02-15T04:07:41.008Z,100.00
2018-02-15T04:10:08.501Z,100.00
2018-02-15T04:12:36.398Z,100.00
2018-02-15T04:15:03.877Z,100.00
2018-02-15T04:17:32.313Z,100.00
2018-02-15T04:20:00.146Z,100.00
2018-02-15T04:22:27.621Z,100.00
2018-02-15T04:24:55.085Z,100.00
2018-02-15T04:27:23.000Z,100.00
2018-02-15T04:29:50.477Z,100.00
2018-02-15T04:32:17.953Z,100.00
2018-02-15T04:34:46.292Z,100.00
2018-02-15T04:37:13.761Z,100.00
2018-02-15T04:39:41.240Z,100.00
2018-02-15T04:42:09.061Z,100.00
2018-02-15T04:44:36.529Z,100.00
2018-02-15T04:47:04.006Z,100.00
2018-02-15T04:49:31.980Z,100.00
2018-02-15T04:51:59.465Z,100.00
2018-02-15T04:54:26.930Z,100.00
2018-02-15T04:56:54.974Z,100.00
2018-02-15T04:59:22.449Z,100.00
2018-02-15T05:01:49.941Z,100.00
2018-02-15T05:04:17.674Z,100.00
2018-02-15T05:06:45.149Z,100.00
2018-02-15T05:09:12.625Z,100.00
2018-02-15T05:11:40.349Z,100.00
2018-02-15T05:14:07.830Z,100.00
2018-02-15T05:16:35.319Z,100.00
2018-02-15T05:19:05.184Z,100.00
2018-02-15T05:21:32.664Z,100.00
2018-02-15T05:24:00.129Z,100.00
2018-02-15T05:26:28.183Z,100.00
2018-02-15T05:28:55.673Z,100.00
2018-02-15T05:31:23.153Z,100.00
2018-02-15T05:33:50.864Z,100.00
2018-02-15T05:36:18.337Z,100.00
2018-02-15T05:38:45.824Z,100.00
2018-02-15T05:41:13.864Z,100.00
2018-02-15T05:43:41.339Z,100.00
2018-02-15T05:46:08.817Z,100.00
2018-02-15T05:48:36.865Z,100.00
2018-02-15T05:51:04.341Z,100.00
2018-02-15T05:53:31.817Z,100.00
2018-02-15T05:55:59.541Z,100.00
2018-02-15T05:58:27.020Z,100.00
2018-02-15T06:00:54.489Z,100.00
2018-02-15T06:03:22.216Z,100.00
2018-02-15T06:05:49.692Z,100.00
2018-02-15T06:08:17.164Z,100.00
2018-02-15T06:10:45.096Z,100.00
2018-02-15T06:13:12.564Z,100.00
2018-02-15T06:15:40.039Z,100.00
2018-02-15T06:18:07.908Z,100.00
2018-02-15T06:20:36.353Z,100.00
2018-02-15T06:23:03.821Z,100.00
2018-02-15T06:25:31.817Z,100.00
2018-02-15T06:27:59.280Z,100.00
2018-02-15T06:30:26.748Z,100.00
2018-02-15T06:32:54.505Z,100.00
2018-02-15T06:35:21.997Z,100.00
2018-02-15T06:37:49.471Z,100.00
2018-02-15T06:40:17.420Z,100.00
2018-02-15T06:42:44.905Z,100.00
2018-02-15T06:45:12.382Z,100.00
2018-02-15T06:47:40.128Z,100.00
2018-02-15T06:50:07.597Z,100.00
2018-02-15T06:52:35.061Z,100.00
2018-02-15T06:55:02.877Z,100.00
2018-02-15T06:57:30.346Z,100.00
2018-02-15T06:59:57.817Z,100.00
2018-02-15T07:02:25.561Z,100.00
2018-02-15T07:04:53.044Z,100.00
2018-02-15T07:07:20.508Z,100.00
2018-02-15T07:09:48.241Z,100.00
2018-02-15T07:12:15.705Z,100.00
2018-02-15T07:14:43.176Z,100.00
2018-02-15T07:17:10.924Z,100.00
2018-02-15T07:19:38.397Z,100.00
2018-02-15T07:22:06.485Z,100.00
2018-02-15T07:24:34.237Z,100.00
2018-02-15T07:27:01.709Z,100.00
2018-02-15T07:29:29.179Z,100.00
2018-02-15T07:31:56.928Z,100.00
2018-02-15T07:34:24.388Z,100.00
2018-02-15T07:36:51.848Z,100.00
2018-02-15T07:39:19.527Z,100.00
2018-02-15T07:41:46.984Z,100.00
2018-02-15T07:44:14.441Z,100.00
2018-02-15T07:46:42.300Z,100.00
2018-02-15T07:49:09.776Z,100.00
2018-02-15T07:51:37.246Z,100.00
2018-02-15T07:54:04.842Z,100.00
2018-02-15T07:56:32.297Z,100.00
2018-02-15T07:58:59.758Z,100.00
2018-02-15T08:01:27.671Z,100.00
2018-02-15T08:03:55.138Z,100.00
2018-02-15T08:06:22.588Z,100.00
2018-02-15T08:08:50.357Z,100.00
2018-02-15T08:11:17.846Z,100.00
2018-02-15T08:13:45.281Z,99.55
2018-02-15T08:16:13.040Z,100.00
2018-02-15T08:18:40.508Z,100.00
2018-02-15T08:21:07.961Z,100.00
2018-02-15T08:23:36.045Z,100.00
2018-02-15T08:26:03.560Z,100.00
2018-02-15T08:28:30.973Z,99.37
2018-02-15T08:30:58.729Z,98.85
2018-02-15T08:33:26.192Z,100.00
2018-02-15T08:35:53.651Z,99.18
2018-02-15T08:38:21.342Z,96.52
2018-02-15T08:40:48.797Z,98.00
2018-02-15T08:43:16.258Z,97.98
2018-02-15T08:45:44.097Z,96.89
2018-02-15T08:48:11.545Z,94.69
2018-02-15T08:50:39.001Z,96.14
2018-02-15T08:53:06.781Z,95.38
2018-02-15T08:55:34.232Z,95.59
2018-02-15T08:58:01.684Z,94.06
2018-02-15T09:00:29.470Z,94.06
2018-02-15T09:02:56.924Z,93.95
2018-02-15T09:05:24.381Z,94.07
2018-02-15T09:07:52.153Z,92.99
2018-02-15T09:10:19.611Z,93.81
2018-02-15T09:12:47.057Z,92.27
2018-02-15T09:15:14.845Z,92.23
2018-02-15T09:17:42.296Z,93.54
2018-02-15T09:20:09.747Z,93.44
2018-02-15T09:22:37.543Z,91.89
2018-02-15T09:25:06.905Z,91.60
2018-02-15T09:27:34.353Z,92.05
2018-02-15T09:30:02.129Z,90.19
2018-02-15T09:32:29.580Z,89.80
2018-02-15T09:34:57.035Z,89.11
2018-02-15T09:37:25.057Z,91.45
2018-02-15T09:39:52.511Z,90.81
2018-02-15T09:42:19.964Z,91.67
2018-02-15T09:44:47.748Z,91.20
2018-02-15T09:47:15.192Z,89.04
2018-02-15T09:49:42.641Z,90.47
2018-02-15T09:52:10.289Z,89.70
2018-02-15T09:54:37.734Z,90.46
2018-02-15T09:57:05.192Z,88.48
2018-02-15T09:59:33.117Z,86.05
2018-02-15T10:02:00.567Z,85.63
2018-02-15T10:04:28.020Z,83.74
2018-02-15T10:06:56.113Z,83.76
2018-02-15T10:09:23.558Z,82.24
2018-02-15T10:11:51.004Z,82.80
2018-02-15T10:14:18.788Z,80.48
2018-02-15T10:16:46.236Z,79.78
2018-02-15T10:19:13.683Z,78.60
2018-02-15T10:21:41.487Z,77.83
2018-02-15T10:24:08.945Z,74.63
2018-02-15T10:26:36.485Z,72.67
2018-02-15T10:29:04.341Z,72.29
2018-02-15T10:31:31.789Z,71.24
2018-02-15T10:33:59.244Z,70.15
2018-02-15T10:36:27.172Z,68.57
2018-02-15T10:38:54.633Z,69.33
2018-02-15T10:41:22.093Z,70.76
2018-02-15T10:43:49.856Z,67.85
2018-02-15T10:46:17.316Z,67.48
2018-02-15T10:48:44.780Z,68.18
2018-02-15T10:51:14.073Z,68.45
2018-02-15T10:53:41.525Z,64.59
2018-02-15T10:56:08.972Z,65.63
2018-02-15T10:58:36.756Z,66.29
2018-02-15T11:01:09.820Z,64.31
2018-02-15T11:03:37.665Z,63.59
2018-02-15T11:06:05.113Z,61.91
2018-02-15T11:08:32.561Z,63.62
2018-02-15T11:11:00.276Z,64.23
2018-02-15T11:13:27.730Z,60.68
2018-02-15T11:15:55.186Z,61.63
2018-02-15T11:18:22.896Z,60.00
2018-02-15T11:20:50.350Z,60.73
2018-02-15T11:23:17.809Z,61.24
2018-02-15T11:25:45.456Z,62.02
2018-02-15T11:28:13.421Z,61.29
2018-02-15T11:30:41.009Z,61.49
2018-02-15T11:33:08.885Z,61.65
2018-02-15T11:35:36.356Z,60.30
2018-02-15T11:38:03.809Z,58.93
2018-02-15T11:40:31.572Z,58.96
2018-02-15T11:42:59.029Z,56.35
2018-02-15T11:45:26.477Z,55.30
2018-02-15T11:47:54.137Z,52.93
2018-02-15T11:50:21.592Z,54.73
2018-02-15T11:52:49.046Z,52.37
2018-02-15T11:55:16.941Z,51.95
2018-02-15T11:57:44.388Z,51.37
2018-02-15T12:00:11.845Z,53.31
2018-02-15T12:02:39.481Z,53.86
2018-02-15T12:05:06.931Z,52.43
2018-02-15T12:07:34.388Z,56.50
2018-02-15T12:10:02.316Z,53.57
2018-02-15T12:12:29.760Z,52.56
2018-02-15T12:14:57.209Z,52.83
2018-02-15T12:17:25.001Z,52.10
2018-02-15T12:19:52.448Z,51.72
2018-02-15T12:22:19.901Z,49.04
2018-02-15T12:24:47.949Z,48.04
2018-02-15T12:27:15.413Z,45.81
2018-02-15T12:29:43.921Z,45.86
2018-02-15T12:32:11.657Z,43.89
2018-02-15T12:34:39.117Z,45.96
2018-02-15T12:37:06.573Z,42.11
2018-02-15T12:39:34.281Z,42.34
2018-02-15T12:42:01.728Z,45.94
2018-02-15T12:44:29.177Z,42.88
2018-02-15T12:46:56.975Z,48.06
2018-02-15T12:49:24.441Z,44.03
2018-02-15T12:51:51.893Z,42.92
2018-02-15T12:54:19.975Z,43.93
2018-02-15T12:56:47.425Z,44.14
2018-02-15T12:59:15.763Z,45.34
2018-02-15T13:01:43.579Z,46.26
2018-02-15T13:04:11.035Z,45.38
2018-02-15T13:06:38.501Z,43.01
2018-02-15T13:09:06.264Z,42.92
2018-02-15T13:11:33.721Z,44.17
2018-02-15T13:14:01.180Z,43.72
2018-02-15T13:16:40.636Z,43.99
2018-02-15T13:19:19.756Z,44.48
2018-02-15T13:21:47.496Z,41.67
2018-02-15T13:24:14.943Z,41.69
2018-02-15T13:26:42.397Z,41.01
2018-02-15T13:29:10.248Z,42.17
2018-02-15T13:31:38.053Z,39.48
2018-02-15T13:34:05.512Z,42.23
2018-02-15T13:36:33.220Z,42.19
2018-02-15T13:39:00.680Z,40.99
2018-02-15T13:41:28.141Z,43.20
2018-02-15T13:43:56.329Z,45.45
2018-02-15T13:46:23.781Z,40.14
2018-02-15T13:48:51.240Z,42.08
2018-02-15T13:51:19.196Z,48.56
2018-02-15T13:53:46.641Z,46.50
2018-02-15T13:56:14.092Z,42.69
2018-02-15T14:05:25.569Z,50.55
2018-02-15T14:07:53.033Z,49.64
2018-02-15T14:10:20.486Z,47.71
2018-02-15T14:12:48.249Z,49.22
2018-02-15T14:15:15.711Z,47.84
2018-02-15T14:17:43.166Z,52.83
2018-02-15T14:20:10.936Z,52.76
2018-02-15T14:22:38.389Z,55.40
2018-02-15T14:25:05.832Z,51.46
2018-02-15T14:27:33.626Z,52.13
2018-02-15T14:30:01.082Z,53.31
2018-02-15T14:32:28.626Z,52.09
2018-02-15T14:34:56.307Z,51.50
2018-02-15T14:37:23.776Z,52.80
2018-02-15T14:39:51.232Z,53.62
2018-02-15T14:42:19.309Z,54.47
2018-02-15T14:44:46.763Z,56.17
2018-02-15T14:47:14.223Z,55.37
2018-02-15T14:49:41.985Z,55.94
2018-02-15T14:52:09.433Z,55.37
2018-02-15T14:54:36.890Z,55.34
2018-02-15T14:57:04.684Z,55.96
2018-02-15T14:59:32.133Z,57.82
2018-02-15T15:01:59.582Z,56.93
2018-02-15T15:04:27.366Z,57.98
2018-02-15T15:06:54.822Z,59.47
2018-02-15T15:09:22.268Z,58.73
2018-02-15T15:11:50.211Z,57.39
2018-02-15T15:14:17.675Z,57.49
2018-02-15T15:16:45.125Z,57.82
2018-02-15T15:19:13.057Z,58.06
2018-02-15T15:21:40.509Z,59.76
2018-02-15T15:24:07.968Z,58.03
2018-02-15T15:26:35.757Z,59.69
2018-02-15T15:29:03.221Z,59.22
2018-02-15T15:31:30.672Z,60.53
2018-02-15T15:33:59.695Z,60.75
2018-02-15T15:36:27.626Z,59.61
2018-02-15T15:38:55.085Z,60.03
2018-02-15T15:41:23.270Z,60.56
2018-02-15T15:43:50.720Z,60.67
2018-02-15T15:46:18.203Z,61.42
2018-02-15T15:48:46.862Z,62.29
2018-02-15T15:51:14.320Z,62.04
2018-02-15T15:53:42.660Z,62.64
2018-02-15T15:56:10.468Z,61.18
2018-02-15T15:58:37.982Z,62.59
2018-02-15T16:01:06.365Z,61.33
2018-02-15T16:03:34.573Z,61.92
2018-02-15T16:06:02.033Z,62.52
2018-02-15T16:08:29.491Z,63.53
2018-02-15T16:10:58.087Z,62.55
2018-02-15T16:13:25.536Z,62.29
2018-02-15T16:15:53.015Z,62.95
2018-02-15T16:18:21.003Z,63.75
2018-02-15T16:20:48.496Z,66.00
2018-02-15T16:23:16.236Z,63.25
2018-02-15T16:25:43.985Z,63.75
2018-02-15T16:28:11.455Z,62.67
2018-02-15T16:30:38.919Z,63.02
2018-02-15T16:33:08.145Z,63.57
2018-02-15T16:35:36.977Z,63.14
2018-02-15T16:38:04.415Z,63.26
2018-02-15T16:40:32.122Z,63.54
2018-02-15T16:43:00.196Z,63.54
2018-02-15T16:45:27.730Z,63.78
2018-02-15T16:47:56.920Z,64.20
2018-02-15T16:50:24.371Z,64.10
2018-02-15T16:52:51.828Z,64.73
2018-02-15T16:55:19.655Z,64.11
2018-02-15T16:57:47.105Z,64.15
2018-02-15T17:00:14.556Z,64.39
2018-02-15T17:02:42.646Z,64.21
2018-02-15T17:05:10.120Z,64.06
2018-02-15T17:07:37.569Z,63.33
2018-02-15T17:10:05.340Z,63.87
2018-02-15T17:12:32.796Z,63.70
2018-02-15T17:15:00.250Z,63.29
2018-02-15T17:17:28.029Z,63.96
2018-02-15T17:19:55.509Z,63.64
2018-02-15T17:22:22.964Z,64.21
2018-02-15T17:24:50.804Z,64.17
2018-02-15T17:27:18.451Z,63.53
2018-02-15T17:29:45.910Z,64.05
2018-02-15T17:32:13.704Z,63.60
2018-02-15T17:34:41.168Z,64.45
2018-02-15T17:37:09.330Z,64.60
2018-02-15T17:39:37.010Z,64.82
2018-02-15T17:42:04.641Z,63.94
2018-02-15T17:44:32.089Z,64.83
2018-02-15T17:46:59.983Z,64.76
2018-02-15T17:49:27.428Z,65.38
2018-02-15T17:51:54.879Z,64.29
2018-02-15T17:54:22.732Z,64.25
2018-02-15T17:56:50.190Z,64.66
2018-02-15T17:59:17.644Z,64.73
2018-02-15T18:01:45.370Z,65.02
2018-02-15T18:04:12.836Z,66.28
2018-02-15T18:06:40.304Z,65.67
2018-02-15T18:09:08.052Z,65.63
2018-02-15T18:11:35.500Z,65.72
2018-02-15T18:14:02.987Z,65.05
2018-02-15T18:16:30.734Z,65.69
2018-02-15T18:18:58.177Z,66.15
2018-02-15T18:21:25.615Z,65.44
2018-02-15T18:23:53.430Z,65.07
2018-02-15T18:26:20.876Z,65.64
2018-02-15T18:28:48.363Z,65.28
2018-02-15T18:31:16.370Z,65.46
2018-02-15T18:33:43.841Z,66.00
2018-02-15T18:36:11.296Z,66.01
2018-02-15T18:38:39.417Z,65.56
2018-02-15T18:41:06.887Z,66.92
2018-02-15T18:43:34.350Z,70.78
2018-02-15T18:46:02.104Z,71.67
2018-02-15T18:48:29.553Z,74.04
2018-02-15T18:50:56.997Z,74.77
2018-02-15T18:53:24.644Z,75.73
2018-02-15T18:55:52.097Z,75.97
2018-02-15T18:58:19.546Z,77.05
2018-02-15T19:00:47.482Z,77.19
2018-02-15T19:03:15.151Z,77.99
2018-02-15T19:05:42.613Z,78.59
2018-02-15T19:08:10.480Z,80.01
2018-02-15T19:10:37.930Z,82.89
2018-02-15T19:13:05.378Z,83.83
2018-02-15T19:15:33.164Z,87.49
2018-02-15T19:18:00.624Z,89.39
2018-02-15T19:20:28.087Z,90.18
2018-02-15T19:22:55.671Z,91.51
2018-02-15T19:25:23.124Z,93.26
2018-02-15T19:27:50.772Z,93.86
2018-02-15T19:30:18.720Z,95.30
2018-02-15T19:32:46.175Z,95.78
2018-02-15T19:35:13.825Z,97.07
2018-02-15T19:37:41.833Z,99.34
2018-02-15T19:40:09.984Z,100.00
2018-02-15T19:42:37.437Z,100.00
2018-02-15T19:45:06.060Z,100.00
2018-02-15T19:47:33.529Z,100.00
2018-02-15T19:50:01.313Z,100.00
2018-02-15T19:52:29.049Z,100.00
2018-02-15T19:54:56.515Z,100.00
2018-02-15T19:57:23.973Z,100.00
2018-02-15T19:59:51.739Z,100.00
2018-02-15T20:02:19.196Z,100.00
2018-02-15T20:04:46.671Z,100.00
2018-02-15T20:07:14.446Z,100.00
2018-02-15T20:09:41.897Z,100.00
2018-02-15T20:12:09.354Z,100.00
2018-02-15T20:14:37.112Z,100.00
2018-02-15T20:17:04.584Z,100.00
2018-02-15T20:19:32.044Z,100.00
2018-02-15T20:21:59.679Z,100.00
2018-02-15T20:24:27.136Z,100.00
2018-02-15T20:27:00.873Z,100.00
2018-02-15T20:29:28.331Z,100.00
2018-02-15T20:31:55.796Z,100.00
2018-02-15T20:34:23.555Z,100.00
2018-02-15T20:36:51.017Z,100.00
2018-02-15T20:39:24.313Z,100.00
2018-02-15T20:41:54.308Z,100.00
2018-02-15T20:44:21.769Z,100.00
2018-02-15T20:46:49.440Z,100.00
2018-02-15T20:49:22.436Z,100.00
2018-02-15T20:51:55.685Z,100.00
2018-02-15T20:54:28.648Z,100.00
2018-02-15T20:56:56.493Z,100.00
2018-02-15T20:59:23.950Z,100.00
2018-02-15T21:01:51.400Z,100.00
2018-02-15T21:04:19.183Z,100.00
2018-02-15T21:06:46.645Z,100.00
2018-02-15T21:09:14.096Z,100.00
2018-02-15T21:11:41.881Z,100.00
2018-02-15T21:14:09.358Z,100.00
2018-02-15T21:16:36.823Z,100.00
2018-02-15T21:19:04.554Z,100.00
2018-02-15T21:21:32.004Z,100.00
2018-02-15T21:23:59.467Z,100.00
2018-02-15T21:26:27.248Z,100.00
2018-02-15T21:28:54.708Z,100.00
2018-02-15T21:31:22.160Z,100.00
2018-02-15T21:33:49.933Z,100.00
2018-02-15T21:36:17.401Z,100.00
2018-02-15T21:38:44.860Z,100.00
2018-02-15T21:41:12.925Z,100.00
2018-02-15T21:43:40.772Z,100.00
2018-02-15T21:46:08.234Z,100.00
2018-02-15T21:48:36.060Z,100.00
2018-02-15T21:51:03.517Z,100.00
2018-02-15T21:53:30.975Z,100.00
2018-02-15T21:55:58.816Z,100.00
2018-02-15T21:58:26.636Z,100.00
2018-02-15T22:00:54.093Z,100.00
2018-02-15T22:03:22.216Z,100.00
2018-02-15T22:05:49.680Z,100.00
2018-02-15T22:08:17.141Z,100.00
2018-02-15T22:10:44.956Z,100.00
2018-02-15T22:13:12.415Z,100.00
2018-02-15T22:15:39.887Z,100.00
2018-02-15T22:18:07.857Z,100.00
2018-02-15T22:20:35.308Z,100.00
2018-02-15T22:23:02.764Z,100.00
2018-02-15T22:25:30.596Z,100.00
2018-02-15T22:27:58.056Z,100.00
2018-02-15T22:30:25.513Z,100.00
2018-02-15T22:32:53.281Z,100.00
2018-02-15T22:35:20.739Z,100.00
2018-02-15T22:37:48.197Z,100.00
2018-02-15T22:40:16.425Z,100.00
2018-02-15T22:42:43.884Z,100.00
2018-02-15T22:45:12.673Z,100.00
2018-02-15T22:47:41.100Z,100.00
2018-02-15T22:50:08.945Z,100.00
2018-02-15T22:52:36.400Z,100.00
2018-02-15T22:55:04.243Z,100.00
2018-02-15T22:57:31.706Z,100.00
2018-02-15T22:59:59.162Z,100.00
2018-02-15T23:02:27.096Z,100.00
2018-02-15T23:04:54.550Z,100.00
2018-02-15T23:07:22.000Z,100.00
2018-02-15T23:09:49.784Z,100.00
2018-02-15T23:12:17.240Z,100.00
2018-02-15T23:14:44.701Z,100.00
2018-02-15T23:17:12.773Z,100.00
2018-02-15T23:19:40.231Z,100.00
2018-02-15T23:22:07.688Z,100.00
2018-02-15T23:24:35.456Z,100.00
2018-02-15T23:27:02.908Z,100.00
2018-02-15T23:29:30.371Z,100.00
2018-02-15T23:31:58.145Z,100.00
2018-02-15T23:34:25.604Z,100.00
2018-02-15T23:36:53.065Z,100.00
2018-02-15T23:39:20.841Z,100.00
2018-02-15T23:41:48.305Z,100.00
2018-02-15T23:44:15.764Z,100.00
2018-02-15T23:46:44.149Z,100.00
2018-02-15T23:49:11.615Z,100.00
2018-02-15T23:51:39.071Z,100.00
2018-02-15T23:54:06.822Z,100.00
2018-02-15T23:56:34.281Z,100.00
2018-02-15T23:59:01.740Z,100.00
